Time;durP1;ratioP1;P1;durP2;ratioP2;P2;SDS_P1;SDS_P2;PMS_P1;PMS_P2;Temp;Humidity;BMP_temperature;BMP_pressure;BME280_temperature;BME280_humidity;BME280_pressure;Samples;Min_cycle;Max_cycle;Signal;HPM_P1;HPM_P2
2021/05/04 00:00:05;;;;;;;;;;;4.90;99.90;;;;;;5094271;28;19907;-58
2021/05/04 00:02:31;;;;;;;;;;;4.80;99.90;;;;;;5101046;28;19916;-58
2021/05/04 00:04:57;;;;;;;;;;;4.80;99.90;;;;;;5097620;28;19912;-56
2021/05/04 00:07:23;;;;;;;;;;;4.80;99.90;;;;;;5096833;28;19912;-58
2021/05/04 00:09:49;;;;;;;;;;;4.80;99.90;;;;;;5098454;28;19916;-58
2021/05/04 00:12:15;;;;;;;;;;;4.80;99.90;;;;;;5095994;28;19916;-58
2021/05/04 00:14:41;;;;;;;;;;;4.90;99.90;;;;;;5095364;28;19961;-58
2021/05/04 00:17:06;;;;;;;;;;;4.80;99.90;;;;;;5099989;28;20284;-57
2021/05/04 00:19:32;;;;;;;;;;;4.80;99.90;;;;;;5096753;28;19912;-58
2021/05/04 00:21:58;;;;;;;;;;;4.80;99.90;;;;;;5094123;28;19934;-59
2021/05/04 00:24:24;;;;;;;;;;;4.80;99.90;;;;;;5097517;28;19920;-58
2021/05/04 00:26:50;;;;;;;;;;;4.80;99.90;;;;;;5097677;28;19904;-58
2021/05/04 00:29:16;;;;;;;;;;;4.70;99.90;;;;;;5103837;28;20292;-59
2021/05/04 00:31:42;;;;;;;;;;;4.70;99.90;;;;;;5100184;28;19923;-58
2021/05/04 00:34:08;;;;;;;;;;;4.70;99.90;;;;;;5093805;28;19915;-57
2021/05/04 00:36:34;;;;;;;;;;;4.70;99.90;;;;;;5099257;28;19922;-58
2021/05/04 00:39:00;;;;;;;;;;;4.70;99.90;;;;;;5098550;28;20283;-58
2021/05/04 00:41:26;;;;;;;;;;;4.80;99.90;;;;;;5096743;27;19908;-57
2021/05/04 00:43:52;;;;;;;;;;;4.80;99.90;;;;;;5096582;28;19939;-57
2021/05/04 00:46:18;;;;;;;;;;;4.70;99.90;;;;;;5097770;28;20365;-58
2021/05/04 00:48:44;;;;;;;;;;;4.70;99.90;;;;;;5097671;28;19912;-58
2021/05/04 00:51:09;;;;;;;;;;;4.70;99.90;;;;;;5094254;28;19919;-58
2021/05/04 00:53:36;;;;;;;;;;;4.70;99.90;;;;;;5092236;28;19918;-58
2021/05/04 00:56:02;;;;;;;;;;;4.70;99.90;;;;;;5095008;28;19915;-57
2021/05/04 00:58:28;;;;;;;;;;;4.70;99.90;;;;;;5096954;28;19916;-57
2021/05/04 01:00:54;;;;;;;;;;;4.70;99.90;;;;;;5093187;28;19934;-55
2021/05/04 01:03:20;;;;;;;;;;;4.70;99.90;;;;;;5098824;28;19916;-58
2021/05/04 01:05:46;;;;;;;;;;;4.60;99.90;;;;;;5097555;28;19908;-58
2021/05/04 01:08:12;;;;;;;;;;;4.60;99.90;;;;;;5094837;28;20322;-57
2021/05/04 01:10:38;;;;;;;;;;;4.60;99.90;;;;;;5102573;28;19961;-56
2021/05/04 01:13:04;;;;;;;;;;;4.60;99.90;;;;;;5099538;28;19920;-57
2021/05/04 01:15:30;;;;;;;;;;;4.60;99.90;;;;;;5095420;28;19907;-57
2021/05/04 01:17:56;;;;;;;;;;;4.50;99.90;;;;;;5092941;28;19974;-58
2021/05/04 01:20:22;;;;;;;;;;;4.50;99.90;;;;;;5101658;28;19968;-56
2021/05/04 01:22:48;;;;;;;;;;;4.50;99.90;;;;;;5093307;28;19939;-58
2021/05/04 01:25:15;;;;;;;;;;;4.50;99.90;;;;;;5101142;28;19919;-56
2021/05/04 01:27:41;;;;;;;;;;;4.50;99.90;;;;;;5094500;28;19915;-57
2021/05/04 01:30:07;;;;;;;;;;;4.50;99.90;;;;;;5100725;28;19908;-57
2021/05/04 01:32:33;;;;;;;;;;;4.50;99.90;;;;;;5100747;28;19912;-57
2021/05/04 01:34:59;;;;;;;;;;;4.50;99.90;;;;;;5092399;28;20412;-58
2021/05/04 01:37:25;;;;;;;;;;;4.60;99.90;;;;;;5094419;28;19912;-57
2021/05/04 01:39:51;;;;;;;;;;;4.60;99.90;;;;;;5093596;28;19985;-58
2021/05/04 01:42:17;;;;;;;;;;;4.60;99.90;;;;;;5102569;28;19916;-57
2021/05/04 01:44:43;;;;;;;;;;;4.70;99.90;;;;;;5092433;28;20364;-58
2021/05/04 01:47:09;;;;;;;;;;;4.70;99.90;;;;;;5092105;28;19957;-58
2021/05/04 01:49:35;;;;;;;;;;;4.70;99.90;;;;;;5094811;28;20357;-59
2021/05/04 01:52:01;;;;;;;;;;;4.70;99.90;;;;;;5091136;28;19912;-59
2021/05/04 01:54:27;;;;;;;;;;;4.70;99.90;;;;;;5092116;28;19920;-58
2021/05/04 01:56:54;;;;;;;;;;;4.70;99.90;;;;;;5100028;28;19912;-58
2021/05/04 01:59:20;;;;;;;;;;;4.70;99.90;;;;;;5091817;28;19915;-58
2021/05/04 02:01:46;;;;;;;;;;;4.60;99.90;;;;;;5094451;28;19912;-58
2021/05/04 02:04:12;;;;;;;;;;;4.70;99.90;;;;;;5092047;28;20388;-58
2021/05/04 02:06:38;;;;;;;;;;;4.70;99.90;;;;;;5101422;28;19919;-58
2021/05/04 02:09:04;;;;;;;;;;;4.70;99.90;;;;;;5093455;28;19908;-58
2021/05/04 02:11:30;;;;;;;;;;;4.70;99.90;;;;;;5101881;28;19912;-58
2021/05/04 02:13:56;;;;;;;;;;;4.70;99.90;;;;;;5097873;28;20383;-57
2021/05/04 02:16:22;;;;;;;;;;;4.70;99.90;;;;;;5097352;27;19912;-57
2021/05/04 02:18:48;;;;;;;;;;;4.70;99.90;;;;;;5099478;28;19927;-58
2021/05/04 02:21:16;;;;;;;;;;;4.70;99.90;;;;;;5096079;28;19927;-59
2021/05/04 02:23:42;;;;;;;;;;;4.80;99.90;;;;;;5091691;28;20792;-58
2021/05/04 02:26:09;;;;;;;;;;;4.70;99.90;;;;;;5095438;28;19915;-57
2021/05/04 02:28:35;;;;;;;;;;;4.70;99.90;;;;;;5093340;28;19912;-57
2021/05/04 02:31:01;;;;;;;;;;;4.70;99.90;;;;;;5104094;28;19927;-57
2021/05/04 02:33:29;;;;;;;;;;;4.70;99.90;;;;;;5092619;28;19919;-57
2021/05/04 02:35:58;;;;;;;;;;;4.70;99.90;;;;;;5095341;28;20368;-57
2021/05/04 02:38:24;;;;;;;;;;;4.80;99.90;;;;;;5100774;28;19908;-59
2021/05/04 02:40:51;;;;;;;;;;;4.80;99.90;;;;;;5103866;28;19908;-58
2021/05/04 02:43:16;;;;;;;;;;;4.70;99.90;;;;;;5102639;28;19920;-58
2021/05/04 02:45:42;;;;;;;;;;;4.80;99.90;;;;;;5090355;28;19932;-58
2021/05/04 02:48:08;;;;;;;;;;;4.80;99.90;;;;;;5095352;28;20360;-59
2021/05/04 02:50:34;;;;;;;;;;;4.80;99.90;;;;;;5102481;27;19911;-59
2021/05/04 02:53:00;;;;;;;;;;;4.80;99.90;;;;;;5094084;28;19919;-57
2021/05/04 02:55:26;;;;;;;;;;;4.90;99.90;;;;;;5092294;28;20284;-58
2021/05/04 02:57:52;;;;;;;;;;;4.90;99.90;;;;;;5092964;28;19912;-58
2021/05/04 03:00:19;;;;;;;;;;;4.90;99.90;;;;;;5102403;28;19912;-59
2021/05/04 03:02:46;;;;;;;;;;;4.90;99.90;;;;;;5094923;28;20254;-58
2021/05/04 03:05:11;;;;;;;;;;;5.00;99.90;;;;;;5097142;28;19908;-54
2021/05/04 03:07:37;;;;;;;;;;;4.90;99.90;;;;;;5093846;28;19958;-58
2021/05/04 03:10:04;;;;;;;;;;;4.90;99.90;;;;;;5093300;28;19912;-57
2021/05/04 03:12:30;;;;;;;;;;;4.90;99.90;;;;;;5097359;28;19915;-58
2021/05/04 03:14:56;;;;;;;;;;;4.90;99.90;;;;;;5095206;28;19959;-58
2021/05/04 03:17:22;;;;;;;;;;;4.90;99.90;;;;;;5095444;28;20830;-59
2021/05/04 03:19:48;;;;;;;;;;;5.00;99.90;;;;;;5097211;28;19918;-59
2021/05/04 03:22:14;;;;;;;;;;;5.00;99.90;;;;;;5097478;28;19944;-58
2021/05/04 03:24:40;;;;;;;;;;;5.00;99.90;;;;;;5099084;28;20304;-58
2021/05/04 03:27:06;;;;;;;;;;;5.10;99.90;;;;;;5097746;28;20022;-57
2021/05/04 03:29:32;;;;;;;;;;;5.10;99.90;;;;;;5092087;28;19913;-57
2021/05/04 03:31:58;;;;;;;;;;;5.10;99.90;;;;;;5101229;28;19958;-59
2021/05/04 03:34:23;;;;;;;;;;;5.10;99.90;;;;;;5095547;28;19923;-58
2021/05/04 03:36:49;;;;;;;;;;;5.10;99.90;;;;;;5094519;28;19912;-58
2021/05/04 03:39:15;;;;;;;;;;;5.10;99.90;;;;;;5098454;28;19912;-58
2021/05/04 03:41:41;;;;;;;;;;;5.10;99.90;;;;;;5091183;28;20368;-58
2021/05/04 03:44:07;;;;;;;;;;;5.10;99.90;;;;;;5094953;28;19920;-58
2021/05/04 03:46:33;;;;;;;;;;;5.10;99.90;;;;;;5093120;28;19908;-58
2021/05/04 03:48:59;;;;;;;;;;;5.20;99.90;;;;;;5095184;28;19911;-59
2021/05/04 03:51:25;;;;;;;;;;;5.20;99.90;;;;;;5095056;28;19919;-59
2021/05/04 03:53:51;;;;;;;;;;;5.20;99.90;;;;;;5095834;28;20279;-58
2021/05/04 03:56:17;;;;;;;;;;;5.20;99.90;;;;;;5108829;28;19915;-58
2021/05/04 03:58:42;;;;;;;;;;;5.30;99.90;;;;;;5111119;28;19908;-59
2021/05/04 04:01:08;;;;;;;;;;;5.30;99.90;;;;;;5097529;28;19916;-58
2021/05/04 04:03:34;;;;;;;;;;;5.40;99.90;;;;;;5102618;28;20296;-59
2021/05/04 04:06:00;;;;;;;;;;;5.40;99.90;;;;;;5102613;28;20002;-59
2021/05/04 04:08:26;;;;;;;;;;;5.40;99.90;;;;;;5095777;28;19927;-59
2021/05/04 04:10:52;;;;;;;;;;;5.50;99.90;;;;;;5099390;28;19919;-59
2021/05/04 04:13:18;;;;;;;;;;;5.50;99.90;;;;;;5094785;28;20311;-59
2021/05/04 04:15:45;;;;;;;;;;;5.50;99.90;;;;;;5096089;28;19958;-59
2021/05/04 04:18:11;;;;;;;;;;;5.60;99.90;;;;;;5094329;28;19916;-57
2021/05/04 04:20:37;;;;;;;;;;;5.60;99.90;;;;;;5102832;28;20007;-58
2021/05/04 04:23:03;;;;;;;;;;;5.70;99.90;;;;;;5098446;28;19912;-59
2021/05/04 04:25:29;;;;;;;;;;;5.70;99.90;;;;;;5093805;28;20284;-58
2021/05/04 04:27:54;;;;;;;;;;;5.70;99.90;;;;;;5096205;28;19908;-59
2021/05/04 04:30:23;;;;;;;;;;;5.80;99.90;;;;;;5094588;28;19908;-57
2021/05/04 04:32:49;;;;;;;;;;;5.80;99.90;;;;;;5103758;28;20367;-58
2021/05/04 04:35:15;;;;;;;;;;;5.80;99.90;;;;;;5095701;27;19928;-61
2021/05/04 04:37:41;;;;;;;;;;;5.80;99.90;;;;;;5102752;28;19908;-59
2021/05/04 04:40:08;;;;;;;;;;;5.90;99.90;;;;;;5101036;28;19977;-58
2021/05/04 04:42:34;;;;;;;;;;;5.80;99.90;;;;;;5074868;28;20337;-59
2021/05/04 04:45:00;;;;;;;;;;;5.80;99.90;;;;;;5084769;28;20416;-59
2021/05/04 04:47:26;;;;;;;;;;;5.80;99.90;;;;;;5093878;28;19930;-59
2021/05/04 04:49:52;;;;;;;;;;;5.80;99.90;;;;;;5093692;28;20341;-59
2021/05/04 04:52:18;;;;;;;;;;;5.80;99.90;;;;;;5094503;28;19923;-58
2021/05/04 04:54:44;;;;;;;;;;;5.70;99.90;;;;;;5094651;28;19998;-58
2021/05/04 04:57:09;;;;;;;;;;;5.70;99.90;;;;;;5094149;28;19941;-59
2021/05/04 04:59:35;;;;;;;;;;;5.60;99.90;;;;;;5093902;28;20383;-57
2021/05/04 05:02:01;;;;;;;;;;;5.60;99.90;;;;;;5093399;28;20000;-58
2021/05/04 05:04:27;;;;;;;;;;;5.60;99.90;;;;;;5094492;28;20262;-59
2021/05/04 05:06:53;;;;;;;;;;;5.60;99.90;;;;;;5094255;28;19912;-59
2021/05/04 05:09:19;;;;;;;;;;;5.60;99.90;;;;;;5093004;28;19908;-59
2021/05/04 05:11:45;;;;;;;;;;;5.50;99.90;;;;;;5093631;28;19943;-59
2021/05/04 05:14:11;;;;;;;;;;;5.50;99.90;;;;;;5093968;28;19926;-58
2021/05/04 05:16:37;;;;;;;;;;;5.50;99.90;;;;;;5094190;28;19975;-58
2021/05/04 05:19:03;;;;;;;;;;;5.50;99.90;;;;;;5094135;28;20344;-59
2021/05/04 05:21:30;;;;;;;;;;;5.50;99.90;;;;;;5093857;28;20081;-58
2021/05/04 05:23:55;;;;;;;;;;;5.50;99.90;;;;;;5093286;28;19919;-58
2021/05/04 05:26:21;;;;;;;;;;;5.50;99.90;;;;;;5092405;28;20284;-58
2021/05/04 05:28:47;;;;;;;;;;;5.50;99.90;;;;;;5094119;28;19908;-59
2021/05/04 05:31:13;;;;;;;;;;;5.50;99.90;;;;;;5093587;28;19904;-59
2021/05/04 05:33:39;;;;;;;;;;;5.50;99.90;;;;;;5092963;28;19908;-59
2021/05/04 05:36:05;;;;;;;;;;;5.60;99.90;;;;;;5093356;28;19920;-59
2021/05/04 05:38:31;;;;;;;;;;;5.60;99.90;;;;;;5093608;28;19912;-60
2021/05/04 05:40:57;;;;;;;;;;;5.60;99.90;;;;;;5092892;28;19908;-59
2021/05/04 05:43:23;;;;;;;;;;;5.60;99.90;;;;;;5093235;28;19915;-58
2021/05/04 05:45:49;;;;;;;;;;;5.60;99.90;;;;;;5093738;28;19908;-57
2021/05/04 05:48:15;;;;;;;;;;;5.60;99.90;;;;;;5093314;28;20026;-58
2021/05/04 05:50:41;;;;;;;;;;;5.60;99.90;;;;;;5091895;28;19904;-57
2021/05/04 05:53:07;;;;;;;;;;;5.60;99.90;;;;;;5093077;28;19999;-59
2021/05/04 05:55:33;;;;;;;;;;;5.60;99.90;;;;;;5091068;28;20280;-59
2021/05/04 05:57:58;;;;;;;;;;;5.60;99.90;;;;;;5093299;28;19908;-59
2021/05/04 06:00:25;;;;;;;;;;;5.60;99.90;;;;;;5093458;28;19912;-59
2021/05/04 06:02:51;;;;;;;;;;;5.70;99.90;;;;;;5093579;28;19908;-59
2021/05/04 06:05:17;;;;;;;;;;;5.70;99.90;;;;;;5092167;28;19919;-59
2021/05/04 06:07:43;;;;;;;;;;;5.80;99.90;;;;;;5093304;28;20280;-59
2021/05/04 06:10:09;;;;;;;;;;;5.80;99.90;;;;;;5093094;28;19904;-59
2021/05/04 06:12:35;;;;;;;;;;;5.80;99.90;;;;;;5093418;28;19908;-59
2021/05/04 06:15:01;;;;;;;;;;;5.80;99.90;;;;;;5092374;28;19922;-59
2021/05/04 06:17:27;;;;;;;;;;;5.80;99.90;;;;;;5092665;28;19947;-58
2021/05/04 06:19:53;;;;;;;;;;;5.80;99.90;;;;;;5093042;28;19915;-59
2021/05/04 06:22:19;;;;;;;;;;;5.80;99.90;;;;;;5092888;28;20280;-59
2021/05/04 06:24:46;;;;;;;;;;;5.80;99.90;;;;;;5092853;28;19969;-59
2021/05/04 06:27:12;;;;;;;;;;;5.80;99.90;;;;;;5091885;28;19904;-57
2021/05/04 06:29:38;;;;;;;;;;;5.80;99.90;;;;;;5092995;28;19911;-58
2021/05/04 06:32:11;;;;;;;;;;;5.80;99.90;;;;;;5092747;28;20261;-59
2021/05/04 06:34:38;;;;;;;;;;;5.80;99.90;;;;;;5092610;28;19927;-59
2021/05/04 06:37:04;;;;;;;;;;;5.80;99.90;;;;;;5090304;28;19915;-58
2021/05/04 06:39:30;;;;;;;;;;;5.80;99.90;;;;;;5092017;28;20307;-60
2021/05/04 06:41:56;;;;;;;;;;;5.70;99.90;;;;;;5091172;28;19916;-59
2021/05/04 06:44:22;;;;;;;;;;;5.70;99.90;;;;;;5090255;28;20037;-60
2021/05/04 06:46:48;;;;;;;;;;;5.80;99.90;;;;;;5092171;28;19920;-58
2021/05/04 06:49:14;;;;;;;;;;;5.80;99.90;;;;;;5092076;28;19904;-59
2021/05/04 06:51:39;;;;;;;;;;;5.80;99.90;;;;;;5090602;28;20277;-58
2021/05/04 06:54:05;;;;;;;;;;;5.90;99.90;;;;;;5092103;28;19912;-59
2021/05/04 06:56:31;;;;;;;;;;;5.90;99.90;;;;;;5092564;28;20006;-59
2021/05/04 06:58:57;;;;;;;;;;;5.90;99.90;;;;;;5092069;28;19912;-59
2021/05/04 07:01:23;;;;;;;;;;;5.90;99.90;;;;;;5092429;28;19919;-58
2021/05/04 07:03:49;;;;;;;;;;;5.90;99.90;;;;;;5092749;28;19923;-60
2021/05/04 07:06:15;;;;;;;;;;;6.00;99.90;;;;;;5092519;28;20451;-59
2021/05/04 07:08:41;;;;;;;;;;;6.10;99.90;;;;;;5091981;28;19912;-59
2021/05/04 07:11:07;;;;;;;;;;;6.20;99.90;;;;;;5101428;28;20368;-58
2021/05/04 07:13:33;;;;;;;;;;;6.20;99.90;;;;;;5100235;28;19912;-59
2021/05/04 07:15:59;;;;;;;;;;;6.30;99.90;;;;;;5095142;28;19912;-59
2021/05/04 07:18:25;;;;;;;;;;;6.30;99.90;;;;;;5093706;28;20379;-59
2021/05/04 07:20:51;;;;;;;;;;;6.30;99.90;;;;;;5101251;28;19919;-59
2021/05/04 07:23:17;;;;;;;;;;;6.40;99.90;;;;;;5093108;28;19935;-59
2021/05/04 07:25:43;;;;;;;;;;;6.30;99.90;;;;;;5092431;28;19928;-59
2021/05/04 07:28:09;;;;;;;;;;;6.30;99.90;;;;;;5092372;28;19919;-59
2021/05/04 07:30:39;;;;;;;;;;;6.20;99.90;;;;;;5091987;28;19918;-59
2021/05/04 07:33:05;;;;;;;;;;;6.20;99.90;;;;;;5092225;28;19915;-58
2021/05/04 07:35:31;;;;;;;;;;;6.30;99.90;;;;;;5092265;28;19920;-59
2021/05/04 07:37:57;;;;;;;;;;;6.40;99.90;;;;;;5092076;28;20281;-58
2021/05/04 07:40:23;;;;;;;;;;;6.50;99.90;;;;;;5091854;28;19911;-58
2021/05/04 07:42:49;;;;;;;;;;;6.50;99.90;;;;;;5092788;28;19912;-58
2021/05/04 07:45:14;;;;;;;;;;;6.50;99.90;;;;;;5092272;28;19956;-59
2021/05/04 07:47:40;;;;;;;;;;;6.60;99.90;;;;;;5093136;28;19926;-58
2021/05/04 07:50:09;;;;;;;;;;;6.60;99.90;;;;;;5092640;28;19919;-58
2021/05/04 07:52:35;;;;;;;;;;;6.60;99.90;;;;;;5094646;28;19904;-59
2021/05/04 07:55:01;;;;;;;;;;;6.60;99.90;;;;;;5092656;28;19966;-58
2021/05/04 07:57:27;;;;;;;;;;;6.60;99.90;;;;;;5091897;28;19915;-59
2021/05/04 07:59:54;;;;;;;;;;;6.60;99.90;;;;;;5091928;28;19911;-57
2021/05/04 08:02:20;;;;;;;;;;;6.60;99.90;;;;;;5091069;28;19912;-57
2021/05/04 08:04:47;;;;;;;;;;;6.60;99.90;;;;;;5095858;28;20324;-58
2021/05/04 08:07:13;;;;;;;;;;;6.70;99.90;;;;;;5095521;28;19904;-59
2021/05/04 08:09:40;;;;;;;;;;;6.70;99.90;;;;;;5095687;28;19937;-58
2021/05/04 08:12:06;;;;;;;;;;;6.70;99.90;;;;;;5095162;28;19908;-57
2021/05/04 08:14:32;;;;;;;;;;;6.70;99.90;;;;;;5094604;28;19908;-59
2021/05/04 08:16:58;;;;;;;;;;;6.60;99.90;;;;;;5095609;28;19904;-58
2021/05/04 08:19:24;;;;;;;;;;;6.70;99.90;;;;;;5095272;28;20239;-58
2021/05/04 08:21:51;;;;;;;;;;;6.70;99.90;;;;;;5095265;28;19915;-58
2021/05/04 08:24:17;;;;;;;;;;;6.70;99.90;;;;;;5094198;28;19912;-59
2021/05/04 08:26:43;;;;;;;;;;;6.70;99.90;;;;;;5095403;28;19904;-57
2021/05/04 08:29:09;;;;;;;;;;;6.70;99.90;;;;;;5094999;28;20272;-63
2021/05/04 08:31:35;;;;;;;;;;;6.80;99.90;;;;;;5094210;28;19904;-56
2021/05/04 08:34:01;;;;;;;;;;;6.70;99.90;;;;;;5094021;28;19912;-58
2021/05/04 08:36:27;;;;;;;;;;;6.70;99.90;;;;;;5094882;28;19920;-58
2021/05/04 08:38:53;;;;;;;;;;;6.70;99.90;;;;;;5094416;28;20272;-59
2021/05/04 08:41:19;;;;;;;;;;;6.80;99.90;;;;;;5095081;28;19919;-58
2021/05/04 08:43:48;;;;;;;;;;;6.90;99.90;;;;;;5092309;28;20391;-58
2021/05/04 08:46:14;;;;;;;;;;;6.90;99.90;;;;;;5095876;28;20042;-59
2021/05/04 08:48:46;;;;;;;;;;;7.10;99.90;;;;;;5094378;28;19908;-58
2021/05/04 08:51:12;;;;;;;;;;;7.10;99.90;;;;;;5094131;28;19920;-59
2021/05/04 08:53:38;;;;;;;;;;;7.20;99.90;;;;;;5094100;28;19912;-59
2021/05/04 08:56:04;;;;;;;;;;;7.30;99.90;;;;;;5093235;28;19908;-59
2021/05/04 08:58:30;;;;;;;;;;;7.30;99.90;;;;;;5093874;28;19912;-59
2021/05/04 09:00:56;;;;;;;;;;;7.50;99.90;;;;;;5093705;28;19912;-58
2021/05/04 09:03:29;;;;;;;;;;;7.60;99.90;;;;;;5092474;28;19912;-58
2021/05/04 09:11:28;;;;;;;;;;;7.90;99.90;;;;;;5085598;28;20004;-58
2021/05/04 09:21:41;;;;;;;;;;;8.90;99.90;;;;;;5099180;28;19927;-59
2021/05/04 09:24:20;;;;;;;;;;;9.20;99.90;;;;;;5092105;28;19916;-59
2021/05/04 09:26:47;;;;;;;;;;;9.50;99.90;;;;;;5093044;28;19919;-59
2021/05/04 09:29:13;;;;;;;;;;;9.10;99.90;;;;;;5092056;28;19912;-59
2021/05/04 09:31:39;;;;;;;;;;;8.80;99.90;;;;;;5092917;28;19911;-58
2021/05/04 09:34:09;;;;;;;;;;;8.60;99.90;;;;;;5092625;28;19931;-58
2021/05/04 09:36:37;;;;;;;;;;;8.40;99.90;;;;;;5092986;28;19919;-58
2021/05/04 09:39:04;;;;;;;;;;;8.30;99.90;;;;;;5091733;28;20284;-59
2021/05/04 09:41:30;;;;;;;;;;;8.30;99.90;;;;;;5092395;28;19908;-59
2021/05/04 09:43:56;;;;;;;;;;;8.40;99.90;;;;;;5092594;28;19920;-59
2021/05/04 09:46:40;;;;;;;;;;;8.50;99.90;;;;;;5092265;28;20280;-59
2021/05/04 09:49:22;;;;;;;;;;;8.60;99.90;;;;;;5092030;28;19908;-59
2021/05/04 09:51:49;;;;;;;;;;;8.60;99.90;;;;;;5092641;28;19919;-58
2021/05/04 09:54:23;;;;;;;;;;;8.50;99.90;;;;;;5092053;28;19911;-58
2021/05/04 09:56:49;;;;;;;;;;;8.40;99.90;;;;;;5090729;28;19908;-59
2021/05/04 09:59:14;;;;;;;;;;;8.40;99.90;;;;;;5090231;28;20407;-59
2021/05/04 10:01:40;;;;;;;;;;;8.40;99.90;;;;;;5089933;28;20318;-58
2021/05/04 10:04:06;;;;;;;;;;;8.30;99.90;;;;;;5088293;28;20383;-57
2021/05/04 10:06:32;;;;;;;;;;;8.30;99.90;;;;;;5087696;28;19919;-58
2021/05/04 10:08:58;;;;;;;;;;;8.20;99.90;;;;;;5088079;28;19942;-58
2021/05/04 10:11:24;;;;;;;;;;;8.10;99.90;;;;;;5087256;28;19912;-57
2021/05/04 10:13:54;;;;;;;;;;;8.10;99.90;;;;;;5087867;28;19916;-58
2021/05/04 10:16:21;;;;;;;;;;;8.20;99.90;;;;;;5085186;28;19912;-58
2021/05/04 10:18:47;;;;;;;;;;;8.20;99.90;;;;;;5078360;28;19923;-57
2021/05/04 10:21:13;;;;;;;;;;;8.20;99.90;;;;;;5088426;28;20357;-57
2021/05/04 10:23:41;;;;;;;;;;;8.20;99.90;;;;;;5092237;28;19908;-58
2021/05/04 10:26:14;;;;;;;;;;;8.20;99.90;;;;;;5089702;28;20395;-56
2021/05/04 10:28:41;;;;;;;;;;;8.10;99.90;;;;;;5086614;28;20272;-57
2021/05/04 10:31:07;;;;;;;;;;;8.00;99.90;;;;;;5088544;28;19911;-57
2021/05/04 10:33:34;;;;;;;;;;;8.00;99.90;;;;;;5090364;28;19919;-56
2021/05/04 10:36:01;;;;;;;;;;;7.80;99.90;;;;;;5090553;28;19927;-58
2021/05/04 10:38:44;;;;;;;;;;;7.80;99.90;;;;;;5091751;28;19912;-58
2021/05/04 10:41:10;;;;;;;;;;;7.80;99.90;;;;;;5090602;28;19916;-57
2021/05/04 10:43:38;;;;;;;;;;;7.80;99.90;;;;;;5090965;28;19922;-58
2021/05/04 10:46:08;;;;;;;;;;;7.70;99.90;;;;;;5091730;28;21329;-58
2021/05/04 10:48:38;;;;;;;;;;;7.70;99.90;;;;;;5091314;28;20368;-58
2021/05/04 10:51:04;;;;;;;;;;;7.60;99.90;;;;;;5091496;28;19915;-58
2021/05/04 10:53:49;;;;;;;;;;;7.60;99.90;;;;;;5090755;28;19919;-57
2021/05/04 10:56:15;;;;;;;;;;;7.50;99.90;;;;;;5091479;28;19916;-57
2021/05/04 10:58:48;;;;;;;;;;;7.50;99.90;;;;;;5091565;28;19920;-58
2021/05/04 11:01:20;;;;;;;;;;;7.50;99.90;;;;;;5091720;28;19912;-57
2021/05/04 11:03:46;;;;;;;;;;;7.40;99.90;;;;;;5090716;28;19908;-57
2021/05/04 11:06:33;;;;;;;;;;;7.40;99.90;;;;;;5091066;28;19916;-59
2021/05/04 11:09:04;;;;;;;;;;;7.40;99.90;;;;;;5083999;28;19920;-58
2021/05/04 11:11:37;;;;;;;;;;;7.40;99.90;;;;;;5091879;28;20292;-57
2021/05/04 11:14:07;;;;;;;;;;;7.30;99.90;;;;;;5090725;28;20367;-59
2021/05/04 11:16:34;;;;;;;;;;;7.30;99.90;;;;;;5090250;28;20379;-58
2021/05/04 11:19:08;;;;;;;;;;;7.30;99.90;;;;;;5090062;28;19916;-58
2021/05/04 11:22:00;;;;;;;;;;;7.20;99.90;;;;;;5092015;28;19915;-58
2021/05/04 11:24:29;;;;;;;;;;;7.20;99.90;;;;;;5088528;28;19912;-58
2021/05/04 11:27:00;;;;;;;;;;;7.10;99.90;;;;;;5091806;28;19904;-57
2021/05/04 11:29:32;;;;;;;;;;;7.10;99.90;;;;;;5083882;28;19908;-57
2021/05/04 11:32:07;;;;;;;;;;;7.20;99.90;;;;;;5091285;28;19915;-57
2021/05/04 11:34:40;;;;;;;;;;;7.10;99.90;;;;;;5090396;28;19915;-57
2021/05/04 11:37:10;;;;;;;;;;;7.20;99.90;;;;;;5090865;28;19912;-56
2021/05/04 11:39:53;;;;;;;;;;;7.10;99.90;;;;;;5094604;28;19942;-56
2021/05/04 11:42:29;;;;;;;;;;;7.10;99.90;;;;;;5097415;28;19923;-56
2021/05/04 11:45:05;;;;;;;;;;;7.10;99.90;;;;;;5100128;28;19915;-57
2021/05/04 11:47:31;;;;;;;;;;;7.20;99.90;;;;;;5080781;28;19927;-57
2021/05/04 11:50:03;;;;;;;;;;;7.20;99.90;;;;;;5097104;28;19912;-57
2021/05/04 11:52:29;;;;;;;;;;;7.20;99.90;;;;;;5096166;27;19912;-56
2021/05/04 11:55:05;;;;;;;;;;;7.20;99.90;;;;;;5094979;28;19915;-55
2021/05/04 11:57:31;;;;;;;;;;;7.20;99.90;;;;;;5093645;28;19923;-55
2021/05/04 11:59:57;;;;;;;;;;;7.20;99.90;;;;;;5095519;28;19912;-56
2021/05/04 12:02:29;;;;;;;;;;;7.20;99.90;;;;;;5095029;28;19912;-56
2021/05/04 12:04:55;;;;;;;;;;;7.20;99.90;;;;;;5093366;28;19928;-55
2021/05/04 12:07:34;;;;;;;;;;;7.10;99.90;;;;;;5094271;28;20278;-56
2021/05/04 12:10:01;;;;;;;;;;;7.10;99.90;;;;;;5094563;28;19904;-56
2021/05/04 12:12:43;;;;;;;;;;;7.10;99.90;;;;;;5079188;28;19914;-55
2021/05/04 12:15:09;;;;;;;;;;;7.20;99.90;;;;;;5092495;28;19919;-56
2021/05/04 12:17:35;;;;;;;;;;;7.20;99.90;;;;;;5094637;28;19935;-55
2021/05/04 12:20:09;;;;;;;;;;;7.30;99.90;;;;;;5095007;28;19904;-56
2021/05/04 12:23:06;;;;;;;;;;;7.30;99.90;;;;;;5094580;28;19916;-54
2021/05/04 12:25:39;;;;;;;;;;;7.30;99.90;;;;;;5089708;28;19927;-55
2021/05/04 12:28:06;;;;;;;;;;;7.20;99.90;;;;;;5094717;28;19915;-51
2021/05/04 12:30:32;;;;;;;;;;;7.30;99.90;;;;;;5093560;28;19904;-59
2021/05/04 12:32:58;;;;;;;;;;;7.20;99.90;;;;;;5103364;28;20318;-58
2021/05/04 12:35:29;;;;;;;;;;;7.10;99.90;;;;;;5102429;28;19926;-58
2021/05/04 12:38:32;;;;;;;;;;;7.20;99.90;;;;;;5105875;28;19907;-58
2021/05/04 12:41:07;;;;;;;;;;;7.10;99.90;;;;;;5096517;28;19908;-58
2021/05/04 12:43:35;;;;;;;;;;;6.90;99.90;;;;;;5094664;28;19919;-58
2021/05/04 12:46:01;;;;;;;;;;;6.90;99.90;;;;;;5094548;28;19920;-59
2021/05/04 12:48:27;;;;;;;;;;;6.90;99.90;;;;;;5093876;28;20446;-59
2021/05/04 12:51:01;;;;;;;;;;;6.80;99.90;;;;;;5092835;28;19923;-58
2021/05/04 12:53:31;;;;;;;;;;;6.80;99.90;;;;;;5094624;28;19912;-59
2021/05/04 12:56:04;;;;;;;;;;;6.80;99.90;;;;;;5094711;28;19920;-60
2021/05/04 12:58:30;;;;;;;;;;;6.80;99.90;;;;;;5094088;28;19915;-61
2021/05/04 13:01:06;;;;;;;;;;;6.80;99.90;;;;;;5083800;28;19908;-60
2021/05/04 13:03:52;;;;;;;;;;;6.80;99.90;;;;;;5093841;28;19923;-60
2021/05/04 13:06:27;;;;;;;;;;;6.80;99.90;;;;;;5084981;28;19919;-59
2021/05/04 13:09:02;;;;;;;;;;;6.80;99.90;;;;;;5093696;28;19922;-60
2021/05/04 13:18:06;;;;;;;;;;;6.80;99.90;;;;;;5094127;28;19908;-56
2021/05/04 13:28:55;;;;;;;;;;;6.70;99.90;;;;;;5100546;28;19927;-55
2021/05/04 13:31:21;;;;;;;;;;;6.60;99.90;;;;;;5093802;28;19912;-52
2021/05/04 13:33:47;;;;;;;;;;;6.60;99.90;;;;;;5092341;28;19912;-55
2021/05/04 13:36:14;;;;;;;;;;;6.60;99.90;;;;;;5093169;28;20356;-54
2021/05/04 13:49:38;;;;;;;;;;;6.60;99.90;;;;;;5099678;28;19942;-56
2021/05/04 13:52:04;;;;;;;;;;;6.70;99.90;;;;;;5096049;28;20375;-55
2021/05/04 13:54:30;;;;;;;;;;;6.70;99.90;;;;;;5102470;28;19912;-60
2021/05/04 13:56:56;;;;;;;;;;;6.60;99.90;;;;;;5095704;28;19912;-56
2021/05/04 13:59:21;;;;;;;;;;;6.70;99.90;;;;;;5091782;28;19919;-56
2021/05/04 14:01:57;;;;;;;;;;;6.70;99.90;;;;;;5091383;28;19912;-57
2021/05/04 14:26:11;;;;;;;;;;;6.60;99.90;;;;;;5087231;28;21063;-57
2021/05/04 14:28:37;;;;;;;;;;;6.70;99.90;;;;;;5084784;28;20337;-55
2021/05/04 14:31:04;;;;;;;;;;;6.70;99.90;;;;;;5092373;28;19914;-58
2021/05/04 14:33:30;;;;;;;;;;;6.80;99.90;;;;;;5092204;28;19912;-58
2021/05/04 14:36:05;;;;;;;;;;;6.80;99.90;;;;;;5091882;28;19920;-58
2021/05/04 14:38:38;;;;;;;;;;;6.70;99.90;;;;;;5091647;28;20092;-59
2021/05/04 14:41:30;;;;;;;;;;;6.70;99.90;;;;;;5080815;28;19912;-59
2021/05/04 15:01:47;;;;;;;;;;;6.70;99.90;;;;;;5091706;28;19908;-58
2021/05/04 15:04:17;;;;;;;;;;;6.70;99.90;;;;;;5091701;28;19919;-59
2021/05/04 15:06:46;;;;;;;;;;;6.70;99.90;;;;;;5091609;28;19924;-60
2021/05/04 15:09:12;;;;;;;;;;;6.70;99.90;;;;;;5090876;28;19927;-59
2021/05/04 15:11:42;;;;;;;;;;;6.70;99.90;;;;;;5091600;28;19915;-59
2021/05/04 15:14:19;;;;;;;;;;;6.60;99.90;;;;;;5096695;28;19926;-59
2021/05/04 15:16:49;;;;;;;;;;;6.60;99.90;;;;;;5101521;28;19911;-60
2021/05/04 15:22:01;;;;;;;;;;;6.60;99.90;;;;;;5096116;28;19939;-59
2021/05/04 15:24:27;;;;;;;;;;;6.60;99.90;;;;;;5096297;28;20276;-58
2021/05/04 15:26:53;;;;;;;;;;;6.60;99.90;;;;;;5092156;28;19935;-58
2021/05/04 15:29:19;;;;;;;;;;;6.60;99.90;;;;;;5090764;28;19919;-58
2021/05/04 15:32:03;;;;;;;;;;;6.60;99.90;;;;;;5089797;28;20360;-56
2021/05/04 15:34:32;;;;;;;;;;;6.60;99.90;;;;;;5090419;28;20386;-59
2021/05/04 15:36:58;;;;;;;;;;;6.60;99.90;;;;;;5093063;28;19908;-58
2021/05/04 15:39:24;;;;;;;;;;;6.60;99.90;;;;;;5089540;28;19919;-58
2021/05/04 15:41:50;;;;;;;;;;;6.60;99.90;;;;;;5087210;28;19915;-60
2021/05/04 15:44:16;;;;;;;;;;;6.60;99.90;;;;;;5089700;28;19955;-59
2021/05/04 15:46:49;;;;;;;;;;;6.60;99.90;;;;;;5092344;28;19915;-61
2021/05/04 15:49:26;;;;;;;;;;;6.70;99.90;;;;;;5092887;28;20475;-59
2021/05/04 16:07:52;;;;;;;;;;;6.70;99.90;;;;;;5102226;28;19919;-58
2021/05/04 16:10:19;;;;;;;;;;;6.80;99.90;;;;;;5097091;28;19916;-61